Time;durP1;ratioP1;P1;durP2;ratioP2;P2;SDS_P1;SDS_P2;PMS_P1;PMS_P2;Temp;Humidity;BMP_temperature;BMP_pressure;BME280_temperature;BME280_humidity;BME280_pressure;Samples;Min_cycle;Max_cycle;Signal;HPM_P1;HPM_P2
2022/10/30 00:00:16;;;;;;;28.70;20.70;;;15.00;1.00;;;;;;5085610;28;20200;-56
2022/10/30 00:02:42;;;;;;;30.63;22.27;;;;;;;;;;5081471;28;20191;-56
2022/10/30 00:05:07;;;;;;;31.53;22.10;;;15.00;1.00;;;;;;5079047;28;20208;-55
2022/10/30 00:07:33;;;;;;;30.43;21.60;;;15.00;1.00;;;;;;5079096;28;20478;-53
2022/10/30 00:09:59;;;;;;;28.57;21.30;;;15.00;1.00;;;;;;5080121;28;20447;-56
2022/10/30 00:12:24;;;;;;;28.47;20.50;;;14.90;1.00;;;;;;5088580;28;20184;-55
2022/10/30 00:14:50;;;;;;;28.70;21.80;;;14.80;1.00;;;;;;5086256;28;20196;-55
2022/10/30 00:17:16;;;;;;;29.60;21.57;;;14.80;1.00;;;;;;5090880;28;20181;-56
2022/10/30 00:19:41;;;;;;;31.40;20.90;;;14.90;1.00;;;;;;5078621;28;20273;-56
2022/10/30 00:22:07;;;;;;;23.40;20.40;;;14.80;1.00;;;;;;5088880;28;20184;-56
2022/10/30 00:24:33;;;;;;;30.30;21.67;;;14.80;1.00;;;;;;5086816;28;20287;-54
2022/10/30 00:26:58;;;;;;;31.73;22.07;;;14.80;1.00;;;;;;5081708;28;20535;-55
2022/10/30 00:29:25;;;;;;;25.87;19.23;;;14.80;1.00;;;;;;5083212;28;20219;-54
2022/10/30 00:31:53;;;;;;;29.67;20.13;;;14.90;1.00;;;;;;5080087;28;20192;-56
2022/10/30 00:34:19;;;;;;;25.20;19.37;;;14.90;1.00;;;;;;5082612;28;20424;-56
2022/10/30 00:36:45;;;;;;;24.70;19.40;;;15.00;1.00;;;;;;5078981;28;20477;-56
2022/10/30 00:39:10;;;;;;;28.20;19.80;;;15.00;1.00;;;;;;5083754;28;20260;-56
2022/10/30 00:41:38;;;;;;;26.97;18.70;;;14.90;1.00;;;;;;5086028;28;20194;-56
2022/10/30 00:44:45;;;;;;;25.13;19.40;;;15.00;1.00;;;;;;5086867;28;20190;-56
2022/10/30 00:47:21;;;;;;;30.27;19.33;;;15.00;1.00;;;;;;5082017;28;20425;-55
2022/10/30 00:49:52;;;;;;;22.93;19.37;;;15.00;1.00;;;;;;5088389;28;20923;-56
2022/10/30 00:52:20;;;;;;;27.47;19.33;;;14.90;1.00;;;;;;5087511;28;20987;-55
2022/10/30 00:54:46;;;;;;;24.73;18.70;;;14.90;1.00;;;;;;5085275;28;20866;-56
2022/10/30 00:57:12;;;;;;;24.20;19.27;;;15.00;1.00;;;;;;5084360;28;20471;-54
2022/10/30 00:59:38;;;;;;;25.20;20.40;;;14.90;1.00;;;;;;5084829;28;20236;-55
2022/10/30 01:02:05;;;;;;;25.47;19.27;;;14.80;1.00;;;;;;5085922;28;20423;-55
2022/10/30 01:04:35;;;;;;;23.23;18.70;;;14.80;1.00;;;;;;5083419;28;20426;-55
2022/10/30 01:07:09;;;;;;;26.23;20.27;;;14.80;1.00;;;;;;5080135;28;20943;-56
2022/10/30 01:09:37;;;;;;;26.70;18.90;;;14.70;1.00;;;;;;5080243;28;20767;-55
2022/10/30 01:12:03;;;;;;;22.60;18.60;;;14.70;1.00;;;;;;5090214;28;20939;-55
2022/10/30 01:14:29;;;;;;;24.63;19.53;;;14.70;1.00;;;;;;5086616;28;20573;-56
2022/10/30 01:17:29;;;;;;;27.77;20.70;;;14.70;1.00;;;;;;5082908;28;20419;-56
2022/10/30 01:20:22;;;;;;;28.30;19.13;;;14.70;1.00;;;;;;5089396;28;20459;-56
2022/10/30 01:22:56;;;;;;;28.20;20.47;;;14.70;1.00;;;;;;5086727;28;21012;-56
2022/10/30 01:25:54;;;;;;;29.20;20.33;;;14.60;1.00;;;;;;5087600;28;20498;-56
2022/10/30 01:28:58;;;;;;;25.73;20.73;;;14.60;1.00;;;;;;5077833;28;20443;-56
2022/10/30 01:31:38;;;;;;;26.07;20.40;;;14.60;1.00;;;;;;5080422;28;20455;-55
2022/10/30 01:34:16;;;;;;;21.07;18.03;;;14.60;1.00;;;;;;5085107;28;20420;-56
2022/10/30 01:36:53;;;;;;;24.10;19.13;;;14.50;1.00;;;;;;5086834;28;20819;-55
2022/10/30 01:39:30;;;;;;;25.80;19.50;;;14.50;1.00;;;;;;5082012;28;20455;-56
2022/10/30 01:41:56;;;;;;;26.93;19.77;;;14.50;1.00;;;;;;5084331;28;20531;-56
2022/10/30 01:44:30;;;;;;;25.37;18.70;;;14.50;1.00;;;;;;5077138;28;20541;-55
2022/10/30 01:47:14;;;;;;;26.70;18.60;;;14.50;1.00;;;;;;5087957;28;20239;-56
2022/10/30 01:50:01;;;;;;;26.80;19.97;;;14.50;1.00;;;;;;5083212;28;20782;-56
2022/10/30 01:53:06;;;;;;;24.40;19.30;;;14.50;1.00;;;;;;5086039;28;20466;-56
2022/10/30 01:55:45;;;;;;;24.60;18.80;;;14.40;1.00;;;;;;5086273;28;20454;-54
2022/10/30 01:58:33;;;;;;;27.50;19.97;;;14.40;1.00;;;;;;5087254;28;20447;-56
2022/10/30 02:00:59;;;;;;;26.33;17.97;;;14.40;1.00;;;;;;5081814;28;20442;-55
2022/10/30 02:03:26;;;;;;;31.40;19.73;;;14.40;1.00;;;;;;5081557;28;20444;-56
2022/10/30 02:05:52;;;;;;;27.13;19.07;;;14.40;1.00;;;;;;5082843;28;20798;-57
2022/10/30 02:08:20;;;;;;;25.13;18.67;;;14.40;1.00;;;;;;5085777;28;20528;-56
2022/10/30 02:10:47;;;;;;;23.97;18.40;;;14.30;1.00;;;;;;5080269;28;20421;-56
2022/10/30 02:13:14;;;;;;;22.00;17.70;;;14.40;1.00;;;;;;5086817;28;20492;-56
2022/10/30 02:15:41;;;;;;;28.93;21.13;;;14.30;1.00;;;;;;5083581;28;20842;-55
2022/10/30 02:18:08;;;;;;;26.20;18.97;;;14.30;1.00;;;;;;5085925;28;20493;-55
2022/10/30 02:20:33;;;;;;;23.20;19.47;;;17.40;1.00;;;;;;5083993;28;20452;-55
2022/10/30 02:22:59;;;;;;;25.40;18.93;;;14.30;1.00;;;;;;5083900;28;20485;-56
2022/10/30 02:25:24;;;;;;;24.60;18.87;;;14.30;1.00;;;;;;5086955;28;20573;-56
2022/10/30 02:27:50;;;;;;;24.50;19.00;;;14.30;1.00;;;;;;5079462;28;20957;-54
2022/10/30 02:30:15;;;;;;;23.40;18.10;;;14.30;1.00;;;;;;5078884;28;20257;-55
2022/10/30 02:32:41;;;;;;;22.10;18.20;;;14.30;1.00;;;;;;5083897;28;20524;-56
2022/10/30 02:35:07;;;;;;;25.00;19.17;;;14.30;1.00;;;;;;5080759;28;20240;-56
2022/10/30 02:37:34;;;;;;;26.80;18.53;;;14.30;1.00;;;;;;5085710;28;20510;-55
2022/10/30 02:40:01;;;;;;;24.07;17.53;;;14.30;1.00;;;;;;5079852;28;20448;-55
2022/10/30 02:42:26;;;;;;;22.37;17.53;;;14.30;1.00;;;;;;5082491;28;20537;-54
2022/10/30 02:44:52;;;;;;;25.40;19.83;;;;;;;;;;5087149;28;20455;-57
2022/10/30 02:47:18;;;;;;;24.70;18.87;;;14.50;1.00;;;;;;5086526;28;20224;-56
2022/10/30 02:49:44;;;;;;;22.87;17.13;;;14.40;1.00;;;;;;5087991;28;20446;-54
2022/10/30 02:52:09;;;;;;;19.60;17.20;;;14.50;1.00;;;;;;5084022;28;20228;-55
2022/10/30 02:54:35;;;;;;;21.13;17.47;;;14.50;1.00;;;;;;5085969;28;20188;-57
2022/10/30 02:57:01;;;;;;;20.97;17.00;;;14.50;1.00;;;;;;5083803;28;20199;-56
2022/10/30 02:59:26;;;;;;;23.00;17.93;;;14.50;1.00;;;;;;5081983;28;20687;-55
2022/10/30 03:01:52;;;;;;;21.47;16.60;;;14.60;1.00;;;;;;5082898;28;20633;-56
2022/10/30 03:04:17;;;;;;;21.00;15.70;;;14.60;1.00;;;;;;5087845;28;20591;-55
2022/10/30 03:06:43;;;;;;;24.67;17.80;;;14.60;1.00;;;;;;5089086;28;20243;-55
2022/10/30 03:09:08;;;;;;;24.53;18.50;;;14.50;1.00;;;;;;5085345;28;21690;-55
2022/10/30 03:11:34;;;;;;;20.60;16.93;;;14.50;1.00;;;;;;5085250;28;20649;-56
2022/10/30 03:14:00;;;;;;;23.90;17.03;;;14.60;1.00;;;;;;5085596;28;20265;-57
2022/10/30 03:16:30;;;;;;;22.67;16.97;;;14.60;1.00;;;;;;5086127;28;20680;-56
2022/10/30 03:18:56;;;;;;;24.87;17.03;;;14.60;1.00;;;;;;5085542;28;20192;-55
2022/10/30 03:21:24;;;;;;;20.97;17.20;;;14.60;1.00;;;;;;5089601;28;20475;-55
2022/10/30 03:23:50;;;;;;;20.57;16.30;;;14.60;1.00;;;;;;5087119;28;20430;-56
2022/10/30 03:26:17;;;;;;;23.67;17.13;;;14.50;1.00;;;;;;5089391;28;22146;-57
2022/10/30 03:28:43;;;;;;;21.30;16.70;;;14.50;1.00;;;;;;5087736;28;20529;-56
2022/10/30 03:31:13;;;;;;;28.00;17.07;;;14.50;1.00;;;;;;5087623;28;20501;-56
2022/10/30 03:33:40;;;;;;;18.60;15.63;;;14.50;1.00;;;;;;5086377;28;20444;-55
2022/10/30 03:36:07;;;;;;;18.97;16.63;;;14.60;1.00;;;;;;5088284;28;20448;-55
2022/10/30 03:38:34;;;;;;;21.73;17.03;;;;;;;;;;5082177;28;20431;-56
2022/10/30 03:40:59;;;;;;;20.03;16.60;;;14.50;1.00;;;;;;5080193;28;20455;-55
2022/10/30 03:43:25;;;;;;;20.60;16.37;;;14.60;1.00;;;;;;5083221;28;20562;-54
2022/10/30 03:45:53;;;;;;;19.07;16.70;;;14.70;1.00;;;;;;5084954;28;20214;-56
2022/10/30 03:48:21;;;;;;;22.70;16.67;;;14.70;1.00;;;;;;5086868;28;20424;-56
2022/10/30 03:50:47;;;;;;;21.67;17.07;;;14.70;1.00;;;;;;5088429;28;20446;-57
2022/10/30 03:53:13;;;;;;;26.60;16.63;;;14.70;1.00;;;;;;5088468;28;20875;-54
2022/10/30 03:55:39;;;;;;;19.40;15.83;;;14.80;1.00;;;;;;5084159;28;20199;-55
2022/10/30 03:58:06;;;;;;;23.17;16.50;;;14.70;1.00;;;;;;5091691;28;20406;-56
2022/10/30 04:00:33;;;;;;;21.00;17.50;;;14.70;1.00;;;;;;5087832;28;20538;-56
2022/10/30 04:02:59;;;;;;;21.73;17.00;;;14.70;1.00;;;;;;5090341;28;20418;-56
2022/10/30 04:05:26;;;;;;;22.97;16.37;;;14.70;1.00;;;;;;5083572;28;20861;-56
2022/10/30 04:08:01;;;;;;;23.87;17.47;;;14.60;1.00;;;;;;5080416;28;20452;-55
2022/10/30 04:10:27;;;;;;;20.63;17.27;;;14.60;1.00;;;;;;5085885;28;20447;-56
2022/10/30 04:13:00;;;;;;;24.60;17.30;;;14.60;1.00;;;;;;5083842;28;20418;-56
2022/10/30 04:15:25;;;;;;;25.10;17.00;;;14.70;1.00;;;;;;5083090;28;20851;-56
2022/10/30 04:17:51;;;;;;;20.53;16.87;;;14.70;1.00;;;;;;5086126;28;20465;-56
2022/10/30 04:20:22;;;;;;;21.50;16.50;;;14.70;1.00;;;;;;5086104;28;20184;-56
2022/10/30 04:22:48;;;;;;;19.97;16.87;;;14.70;1.00;;;;;;5079329;28;20237;-55
2022/10/30 04:25:13;;;;;;;23.30;18.07;;;14.70;1.00;;;;;;5087067;28;20459;-54
2022/10/30 04:27:43;;;;;;;20.07;17.03;;;14.70;1.00;;;;;;5086773;28;20634;-56
2022/10/30 04:30:11;;;;;;;21.10;17.03;;;14.70;1.00;;;;;;5085786;28;20193;-57
2022/10/30 04:32:48;;;;;;;23.67;17.37;;;14.70;1.00;;;;;;5089522;28;20452;-55
2022/10/30 04:35:15;;;;;;;23.00;17.27;;;14.70;1.00;;;;;;5089403;28;20573;-53
2022/10/30 04:37:41;;;;;;;19.37;16.57;;;;;;;;;;5091253;28;20420;-56
2022/10/30 04:40:07;;;;;;;20.33;17.17;;;14.60;1.00;;;;;;5086655;28;20499;-57
2022/10/30 04:42:33;;;;;;;21.47;17.60;;;14.50;1.00;;;;;;5086263;28;20491;-55
2022/10/30 04:45:01;;;;;;;21.83;15.67;;;14.50;1.00;;;;;;5081253;28;20446;-54
2022/10/30 04:47:27;;;;;;;21.90;16.57;;;;;;;;;;5083365;28;20548;-56
2022/10/30 04:49:52;;;;;;;20.33;17.63;;;14.40;1.00;;;;;;5088495;28;21026;-55
2022/10/30 04:52:18;;;;;;;24.60;17.83;;;14.40;1.00;;;;;;5088813;28;20561;-56
2022/10/30 04:54:44;;;;;;;26.50;16.80;;;14.40;1.00;;;;;;5088149;28;20321;-55
2022/10/30 04:57:09;;;;;;;27.03;16.40;;;14.40;1.00;;;;;;5090159;28;20279;-55
2022/10/30 04:59:35;;;;;;;25.17;17.87;;;14.30;1.00;;;;;;5088407;28;20195;-55
2022/10/30 05:02:01;;;;;;;21.73;16.97;;;;;;;;;;5087298;28;20194;-55
2022/10/30 05:04:26;;;;;;;21.33;16.27;;;14.40;1.00;;;;;;5087831;28;20217;-54
2022/10/30 05:06:52;;;;;;;20.00;16.47;;;14.30;1.00;;;;;;5085880;28;20963;-55
2022/10/30 05:09:18;;;;;;;25.43;17.53;;;14.20;1.00;;;;;;5082179;28;20196;-56
2022/10/30 05:11:43;;;;;;;25.43;17.73;;;14.30;1.00;;;;;;5084381;28;20559;-55
2022/10/30 05:14:09;;;;;;;18.63;16.53;;;14.30;1.00;;;;;;5081890;28;20199;-55
2022/10/30 05:16:34;;;;;;;26.60;17.90;;;14.40;1.00;;;;;;5088271;28;20187;-56
2022/10/30 05:19:00;;;;;;;22.27;17.27;;;14.40;1.00;;;;;;5085144;28;20243;-56
2022/10/30 05:21:25;;;;;;;23.57;17.30;;;14.40;1.00;;;;;;5086034;28;20215;-55
2022/10/30 05:23:51;;;;;;;22.87;17.70;;;14.40;1.00;;;;;;5083415;28;20196;-55
2022/10/30 05:26:16;;;;;;;19.00;15.90;;;14.50;1.00;;;;;;5084334;28;20673;-54
2022/10/30 05:28:42;;;;;;;21.83;16.43;;;14.40;1.00;;;;;;5080453;28;20558;-57
2022/10/30 05:31:07;;;;;;;22.53;16.80;;;14.50;1.00;;;;;;5086463;28;20683;-55
2022/10/30 05:33:33;;;;;;;20.93;16.13;;;14.50;1.00;;;;;;5080598;28;20734;-56
2022/10/30 05:35:58;;;;;;;22.30;17.00;;;14.50;1.00;;;;;;5077365;28;20204;-57
2022/10/30 05:38:24;;;;;;;22.47;17.37;;;14.50;1.00;;;;;;5083729;28;20677;-56
2022/10/30 05:40:49;;;;;;;18.70;16.10;;;14.50;1.00;;;;;;5079345;28;20206;-56
2022/10/30 05:43:15;;;;;;;21.47;16.80;;;14.50;1.00;;;;;;5087187;28;20192;-55
2022/10/30 05:45:42;;;;;;;19.30;16.67;;;14.50;1.00;;;;;;5088053;28;20313;-55
2022/10/30 05:48:08;;;;;;;20.67;16.77;;;14.50;1.00;;;;;;5086240;28;20201;-55
2022/10/30 05:50:33;;;;;;;21.40;15.77;;;14.50;1.00;;;;;;5084917;28;20434;-56
2022/10/30 05:53:01;;;;;;;19.70;16.80;;;14.50;1.00;;;;;;5083820;28;20304;-57
2022/10/30 05:55:28;;;;;;;20.70;16.53;;;14.50;1.00;;;;;;5086618;28;20189;-56
2022/10/30 05:58:01;;;;;;;20.37;17.00;;;14.90;1.00;;;;;;5081745;28;20451;-55
2022/10/30 06:00:28;;;;;;;21.37;17.53;;;14.60;1.00;;;;;;5081533;28;20948;-56
2022/10/30 06:03:06;;;;;;;23.63;16.43;;;14.60;1.00;;;;;;5084454;28;20449;-54
2022/10/30 06:05:33;;;;;;;21.53;15.87;;;14.60;1.00;;;;;;5083899;28;20536;-55
2022/10/30 06:08:04;;;;;;;17.30;15.50;;;14.60;1.00;;;;;;5087758;28;20443;-57
2022/10/30 06:10:30;;;;;;;19.40;17.07;;;14.60;1.00;;;;;;5080280;28;20426;-57
2022/10/30 06:13:00;;;;;;;21.40;15.40;;;14.70;1.00;;;;;;5086020;28;20448;-55
2022/10/30 06:15:27;;;;;;;18.23;14.47;;;14.70;1.00;;;;;;5082381;28;20459;-55
2022/10/30 06:17:53;;;;;;;17.83;15.03;;;14.80;1.00;;;;;;5085838;28;20447;-56
2022/10/30 06:20:21;;;;;;;18.17;15.77;;;14.80;1.00;;;;;;5084069;28;20429;-55
2022/10/30 06:23:01;;;;;;;17.57;15.83;;;14.80;1.00;;;;;;5083689;28;20447;-57
2022/10/30 06:25:30;;;;;;;20.83;15.40;;;14.80;1.00;;;;;;5087099;28;20545;-55
2022/10/30 06:27:56;;;;;;;21.07;16.50;;;14.80;1.00;;;;;;5084862;28;20519;-54
2022/10/30 06:30:22;;;;;;;17.43;15.53;;;14.90;1.00;;;;;;5081343;28;20459;-56
2022/10/30 06:32:48;;;;;;;18.83;14.93;;;14.90;1.00;;;;;;5081931;28;20415;-55
2022/10/30 06:35:14;;;;;;;21.60;16.50;;;;;;;;;;5084256;28;20231;-57
2022/10/30 06:37:46;;;;;;;20.17;15.83;;;14.90;1.00;;;;;;5078766;28;20529;-56
2022/10/30 06:40:12;;;;;;;18.90;15.03;;;15.00;1.00;;;;;;5079086;28;20471;-56
2022/10/30 06:42:49;;;;;;;18.23;15.73;;;15.00;1.00;;;;;;5079257;28;20486;-56
2022/10/30 06:45:15;;;;;;;17.97;16.03;;;15.10;1.00;;;;;;5081959;28;20183;-55
2022/10/30 06:47:42;;;;;;;19.07;15.73;;;15.20;1.00;;;;;;5087631;28;20418;-57
2022/10/30 06:50:10;;;;;;;15.80;13.90;;;15.20;1.00;;;;;;5088262;28;21020;-55
2022/10/30 06:52:35;;;;;;;22.67;15.77;;;15.30;1.00;;;;;;5085193;28;20482;-55
2022/10/30 06:55:01;;;;;;;19.07;15.80;;;15.30;1.00;;;;;;5085172;28;20449;-57
2022/10/30 06:57:26;;;;;;;18.10;15.10;;;15.40;1.00;;;;;;5086022;28;20189;-56
2022/10/30 06:59:52;;;;;;;19.97;16.23;;;15.50;1.00;;;;;;5088067;28;20191;-56
2022/10/30 07:02:18;;;;;;;17.23;15.43;;;15.50;1.00;;;;;;5090163;28;20474;-57
2022/10/30 07:04:44;;;;;;;21.60;16.90;;;15.60;1.00;;;;;;5086537;28;20185;-56
2022/10/30 07:07:10;;;;;;;18.03;14.73;;;15.60;1.00;;;;;;5086404;28;20212;-56
2022/10/30 07:09:36;;;;;;;19.50;15.10;;;15.50;1.00;;;;;;5089476;28;20440;-56
2022/10/30 07:12:01;;;;;;;18.33;15.37;;;15.60;1.00;;;;;;5086809;28;20971;-56
2022/10/30 07:14:27;;;;;;;21.53;16.13;;;15.50;1.00;;;;;;5086480;28;20184;-55
2022/10/30 07:16:55;;;;;;;21.23;16.03;;;15.50;1.00;;;;;;5084475;28;20200;-55
2022/10/30 07:19:22;;;;;;;21.77;18.10;;;15.50;1.00;;;;;;5084446;28;20194;-56
2022/10/30 07:21:48;;;;;;;20.30;16.20;;;15.50;1.00;;;;;;5083439;28;20790;-55
2022/10/30 07:24:13;;;;;;;20.10;17.27;;;15.50;1.00;;;;;;5087108;28;20426;-54
2022/10/30 07:26:39;;;;;;;22.97;16.63;;;15.50;1.00;;;;;;5088821;28;20208;-55
2022/10/30 07:29:05;;;;;;;27.03;17.60;;;15.50;1.00;;;;;;5081566;28;20184;-57
2022/10/30 07:31:31;;;;;;;19.30;15.83;;;15.50;1.00;;;;;;5087333;28;20438;-57
2022/10/30 07:33:56;;;;;;;18.10;16.20;;;15.60;1.00;;;;;;5085698;28;20183;-57
2022/10/30 07:36:22;;;;;;;19.13;16.60;;;15.70;1.00;;;;;;5084819;28;20655;-59
2022/10/30 07:38:49;;;;;;;20.33;17.10;;;15.80;1.00;;;;;;5085462;28;21782;-55
2022/10/30 07:41:16;;;;;;;20.97;16.80;;;15.90;1.00;;;;;;5085239;28;20559;-56
2022/10/30 07:43:42;;;;;;;17.70;15.70;;;16.00;1.00;;;;;;5084401;28;21014;-57
2022/10/30 07:46:07;;;;;;;21.07;16.47;;;16.00;1.00;;;;;;5084094;28;20549;-54
2022/10/30 07:48:33;;;;;;;19.50;16.57;;;16.00;1.00;;;;;;5088349;28;20197;-55
2022/10/30 07:50:58;;;;;;;22.40;17.13;;;15.90;1.00;;;;;;5087135;28;20184;-55
2022/10/30 07:53:24;;;;;;;26.60;17.03;;;16.00;1.00;;;;;;5090028;28;20219;-56
2022/10/30 07:55:50;;;;;;;24.13;17.20;;;16.00;1.00;;;;;;5087033;28;20671;-56
2022/10/30 07:58:15;;;;;;;21.70;17.10;;;15.90;1.00;;;;;;5084379;28;20199;-57
2022/10/30 08:00:41;;;;;;;19.93;17.20;;;15.90;1.00;;;;;;5084497;28;20196;-57
2022/10/30 08:03:08;;;;;;;21.07;17.40;;;15.90;1.00;;;;;;5087401;28;20186;-57
2022/10/30 08:05:33;;;;;;;23.20;17.60;;;15.90;1.00;;;;;;5088874;28;20203;-56
2022/10/30 08:07:59;;;;;;;20.90;16.93;;;16.00;1.00;;;;;;5086537;28;20421;-55
2022/10/30 08:10:25;;;;;;;19.10;16.70;;;15.90;1.00;;;;;;5089304;28;20554;-55
2022/10/30 08:12:51;;;;;;;20.03;17.23;;;15.90;1.00;;;;;;5086502;28;20188;-55
2022/10/30 08:15:16;;;;;;;19.70;17.60;;;15.90;1.00;;;;;;5089076;28;20467;-56
2022/10/30 08:17:44;;;;;;;22.83;17.60;;;16.00;1.00;;;;;;5082676;28;20187;-56
2022/10/30 08:20:12;;;;;;;21.87;17.17;;;16.10;1.00;;;;;;5088968;28;20452;-57
2022/10/30 08:22:48;;;;;;;21.00;16.03;;;16.10;1.00;;;;;;5083288;28;21084;-55
2022/10/30 08:25:14;;;;;;;20.77;17.60;;;;;;;;;;5088898;28;20414;-56
2022/10/30 08:27:54;;;;;;;24.23;18.43;;;16.20;1.00;;;;;;5088641;28;20426;-56
2022/10/30 08:30:20;;;;;;;18.90;16.87;;;16.50;1.00;;;;;;5080011;28;20461;-54
2022/10/30 08:32:46;;;;;;;19.17;16.90;;;16.80;1.00;;;;;;5087207;28;20421;-57
2022/10/30 08:35:11;;;;;;;22.87;17.73;;;17.00;1.00;;;;;;5087266;28;20511;-55
2022/10/30 08:37:37;;;;;;;22.63;17.67;;;17.00;1.00;;;;;;5089952;28;20191;-55
2022/10/30 08:40:03;;;;;;;18.80;16.80;;;17.10;1.00;;;;;;5090270;28;20182;-53
2022/10/30 08:42:28;;;;;;;21.37;18.33;;;17.20;1.00;;;;;;5085320;28;20201;-55
2022/10/30 08:44:54;;;;;;;24.70;19.37;;;17.10;1.00;;;;;;5086161;28;20440;-53
2022/10/30 08:47:19;;;;;;;21.07;17.53;;;17.10;1.00;;;;;;5086226;28;20217;-54
2022/10/30 08:49:46;;;;;;;21.13;17.33;;;17.10;1.00;;;;;;5089114;28;20216;-54
2022/10/30 08:52:12;;;;;;;20.10;17.10;;;17.20;1.00;;;;;;5088745;28;20216;-54
2022/10/30 08:54:37;;;;;;;20.60;17.37;;;17.40;1.00;;;;;;5089194;28;20761;-54
2022/10/30 08:57:03;;;;;;;22.03;17.30;;;17.50;1.00;;;;;;5089352;28;20528;-54
2022/10/30 08:59:28;;;;;;;20.90;16.30;;;17.60;1.00;;;;;;5086210;28;20200;-55
2022/10/30 09:01:54;;;;;;;19.07;17.00;;;17.70;1.00;;;;;;5087219;28;20220;-55
2022/10/30 09:04:20;;;;;;;20.57;15.87;;;17.70;1.00;;;;;;5087519;28;20279;-55
2022/10/30 09:06:46;;;;;;;23.40;17.10;;;17.90;1.00;;;;;;5088299;28;20208;-56
2022/10/30 09:09:13;;;;;;;19.27;16.00;;;;;;;;;;5085822;28;20426;-55
2022/10/30 09:11:39;;;;;;;20.30;16.33;;;18.10;1.00;;;;;;5085323;28;20185;-56
2022/10/30 09:14:04;;;;;;;19.90;16.87;;;18.20;1.00;;;;;;5088485;28;20928;-56
2022/10/30 09:16:30;;;;;;;18.27;16.27;;;18.30;1.00;;;;;;5086599;28;20190;-55
2022/10/30 09:18:56;;;;;;;22.23;17.13;;;;;;;;;;5079163;28;20605;-56
2022/10/30 09:21:21;;;;;;;19.10;16.07;;;18.60;1.00;;;;;;5078715;28;20227;-54
2022/10/30 09:23:47;;;;;;;21.67;17.37;;;18.60;1.00;;;;;;5088735;28;20425;-55
2022/10/30 09:26:12;;;;;;;20.87;16.67;;;18.70;1.00;;;;;;5088099;28;20670;-56
2022/10/30 09:28:38;;;;;;;20.50;15.37;;;18.80;1.00;;;;;;5086136;28;20683;-55
2022/10/30 09:31:03;;;;;;;22.37;16.80;;;21.60;1.00;;;;;;5087120;28;20648;-54
2022/10/30 09:33:29;;;;;;;19.47;16.37;;;19.00;1.00;;;;;;5086854;28;20190;-53
2022/10/30 09:35:55;;;;;;;18.07;15.67;;;19.00;1.00;;;;;;5084643;28;20225;-55
2022/10/30 09:38:21;;;;;;;19.83;15.17;;;;;;;;;;5087022;28;20205;-56
2022/10/30 09:41:10;;;;;;;21.93;15.77;;;19.40;1.00;;;;;;5088051;28;20301;-57
2022/10/30 09:43:56;;;;;;;20.30;15.30;;;19.40;1.00;;;;;;5088517;28;20417;-56
2022/10/30 09:46:43;;;;;;;16.80;15.00;;;19.20;1.00;;;;;;5087798;28;20464;-55
2022/10/30 09:49:32;;;;;;;17.77;14.40;;;19.20;1.00;;;;;;5081568;28;20449;-55
2022/10/30 09:52:16;;;;;;;16.97;15.17;;;19.30;1.00;;;;;;5082459;28;20927;-54
2022/10/30 09:54:47;;;;;;;18.90;15.13;;;19.40;1.00;;;;;;5083951;28;20456;-56
2022/10/30 09:57:34;;;;;;;19.60;15.20;;;19.60;1.00;;;;;;5087661;28;20410;-57
2022/10/30 10:00:12;;;;;;;16.70;15.00;;;19.70;1.00;;;;;;5085076;28;20489;-56
2022/10/30 10:02:45;;;;;;;18.70;14.90;;;19.80;1.00;;;;;;5084105;28;20497;-55
2022/10/30 10:05:17;;;;;;;16.90;14.83;;;20.10;1.00;;;;;;5086449;28;21008;-56
2022/10/30 10:07:54;;;;;;;19.60;15.00;;;19.90;1.00;;;;;;5087072;28;20544;-55
2022/10/30 10:10:43;;;;;;;21.43;14.90;;;19.90;1.00;;;;;;5083415;28;20417;-56
2022/10/30 10:13:28;;;;;;;19.37;16.10;;;20.10;1.00;;;;;;5082255;28;20832;-54
2022/10/30 10:16:05;;;;;;;17.83;14.80;;;19.10;1.00;;;;;;5082730;28;20480;-56
2022/10/30 10:18:38;;;;;;;17.87;15.50;;;20.20;1.00;;;;;;5080528;28;20432;-55
2022/10/30 10:21:17;;;;;;;16.97;14.50;;;20.50;1.00;;;;;;5083422;28;20451;-55
2022/10/30 10:24:01;;;;;;;16.57;14.63;;;20.80;1.00;;;;;;5088194;28;20948;-55
2022/10/30 10:26:54;;;;;;;22.17;16.10;;;20.80;1.00;;;;;;5086876;28;20459;-56
2022/10/30 10:29:32;;;;;;;27.67;15.33;;;20.80;1.00;;;;;;5081070;28;20836;-54
2022/10/30 10:32:10;;;;;;;16.83;14.47;;;20.70;1.00;;;;;;5080672;28;20509;-55
2022/10/30 10:35:20;;;;;;;19.23;15.60;;;20.80;1.00;;;;;;5086739;28;20431;-56
2022/10/30 10:38:06;;;;;;;16.20;14.50;;;20.90;1.00;;;;;;5076794;28;20540;-56
2022/10/30 10:40:58;;;;;;;20.53;14.60;;;21.00;1.00;;;;;;5086915;28;20410;-55
2022/10/30 10:43:33;;;;;;;16.47;14.17;;;21.10;1.00;;;;;;5079835;28;20506;-56
2022/10/30 10:46:28;;;;;;;17.50;15.20;;;21.10;1.00;;;;;;5078455;28;20550;-54
2022/10/30 10:49:21;;;;;;;16.90;14.60;;;21.70;1.00;;;;;;5081908;28;20787;-56
2022/10/30 10:51:55;;;;;;;19.20;15.30;;;21.80;1.00;;;;;;5081684;28;20423;-55
2022/10/30 10:54:28;;;;;;;17.00;15.00;;;21.80;1.00;;;;;;5086902;28;20466;-56
2022/10/30 10:56:54;;;;;;;18.30;15.10;;;21.90;1.00;;;;;;5086423;28;20451;-55
2022/10/30 10:59:41;;;;;;;17.10;14.33;;;21.80;1.00;;;;;;5088243;28;20422;-57
2022/10/30 11:02:07;;;;;;;16.97;14.30;;;21.60;1.00;;;;;;5087367;28;20468;-55
2022/10/30 11:04:39;;;;;;;20.40;15.03;;;21.60;1.00;;;;;;5087455;28;20443;-54
2022/10/30 11:07:19;;;;;;;16.83;15.13;;;21.60;1.00;;;;;;5087929;28;20213;-54
2022/10/30 11:09:50;;;;;;;18.80;14.20;;;22.10;1.00;;;;;;5083938;28;20419;-55
2022/10/30 11:12:16;;;;;;;20.43;15.37;;;22.20;1.00;;;;;;5088004;28;20437;-55
2022/10/30 11:14:42;;;;;;;17.47;14.60;;;22.40;1.00;;;;;;5087144;28;20441;-55
2022/10/30 11:17:37;;;;;;;17.77;13.93;;;22.30;1.00;;;;;;5085766;28;20447;-57
2022/10/30 11:20:16;;;;;;;15.77;14.17;;;19.90;1.00;;;;;;5088278;28;20661;-55
2022/10/30 11:22:48;;;;;;;16.20;14.20;;;22.40;1.00;;;;;;5085350;28;20447;-55
2022/10/30 11:25:32;;;;;;;15.80;13.20;;;22.40;1.00;;;;;;5087935;28;20437;-56
2022/10/30 11:28:04;;;;;;;16.67;14.40;;;22.60;1.00;;;;;;5085787;28;20427;-56
2022/10/30 11:30:30;;;;;;;15.50;13.90;;;22.50;1.00;;;;;;5086817;28;20448;-56
2022/10/30 11:32:56;;;;;;;16.70;14.77;;;22.50;1.00;;;;;;5088932;28;20434;-54
2022/10/30 11:35:22;;;;;;;16.73;14.93;;;22.40;1.00;;;;;;5088718;28;20424;-55
2022/10/30 11:37:50;;;;;;;19.80;14.70;;;22.20;1.00;;;;;;5084853;28;20416;-54
2022/10/30 11:40:21;;;;;;;15.67;14.03;;;22.10;1.00;;;;;;5090368;28;20191;-55
2022/10/30 11:42:56;;;;;;;24.10;16.27;;;22.20;1.00;;;;;;5086618;28;20505;-56
2022/10/30 11:45:27;;;;;;;16.77;14.97;;;22.20;1.00;;;;;;5088529;28;20432;-54
2022/10/30 11:47:59;;;;;;;18.80;14.60;;;22.40;1.00;;;;;;5087627;28;20457;-54
2022/10/30 11:50:28;;;;;;;15.67;14.07;;;22.40;1.00;;;;;;5085159;28;20938;-56
2022/10/30 11:53:30;;;;;;;19.00;14.17;;;22.50;1.00;;;;;;5088094;28;20940;-55
2022/10/30 11:55:57;;;;;;;17.87;13.57;;;22.40;1.00;;;;;;5079368;28;20539;-55
2022/10/30 11:58:34;;;;;;;18.80;14.20;;;22.40;1.00;;;;;;5066485;28;20457;-57
2022/10/30 12:01:05;;;;;;;17.17;14.30;;;22.40;1.00;;;;;;5088413;28;20444;-57
2022/10/30 12:03:39;;;;;;;19.07;14.00;;;22.50;1.00;;;;;;5091372;28;20436;-56
2022/10/30 12:06:24;;;;;;;15.97;14.27;;;22.50;1.00;;;;;;5090529;28;20557;-57
2022/10/30 12:09:10;;;;;;;16.83;15.13;;;22.50;1.00;;;;;;5091549;28;20892;-56
2022/10/30 12:11:38;;;;;;;18.17;14.93;;;22.50;1.00;;;;;;5090941;28;20438;-57
2022/10/30 12:14:04;;;;;;;19.83;15.80;;;22.60;1.00;;;;;;5090185;28;20527;-56
2022/10/30 12:16:31;;;;;;;18.53;14.87;;;22.60;1.00;;;;;;5090248;28;20423;-57
2022/10/30 12:19:03;;;;;;;20.63;16.20;;;22.60;1.00;;;;;;5091782;28;20435;-57
2022/10/30 12:21:43;;;;;;;19.80;15.80;;;22.50;1.00;;;;;;5091488;28;20870;-57
2022/10/30 12:24:31;;;;;;;16.77;14.60;;;22.50;1.00;;;;;;5091880;28;20406;-57
2022/10/30 12:27:01;;;;;;;17.83;16.03;;;22.50;1.00;;;;;;5091587;28;20543;-57
2022/10/30 12:29:57;;;;;;;17.07;15.27;;;22.50;1.00;;;;;;5091606;28;20433;-57
2022/10/30 12:32:28;;;;;;;18.13;14.83;;;22.60;1.00;;;;;;5082183;28;21026;-57
2022/10/30 12:35:02;;;;;;;17.37;15.63;;;22.50;1.00;;;;;;5084901;28;20452;-57
2022/10/30 12:37:37;;;;;;;16.37;14.67;;;22.50;1.00;;;;;;5083707;28;20445;-56
2022/10/30 12:40:25;;;;;;;16.40;14.63;;;22.60;1.00;;;;;;5083340;28;20419;-59
2022/10/30 12:43:03;;;;;;;17.30;15.17;;;22.70;1.00;;;;;;5079684;28;20958;-56
2022/10/30 12:45:49;;;;;;;16.93;15.13;;;22.60;1.00;;;;;;5087574;28;20533;-54
2022/10/30 12:48:40;;;;;;;19.40;14.90;;;22.60;1.00;;;;;;5090138;28;20435;-55
2022/10/30 12:51:39;;;;;;;16.10;14.50;;;22.60;1.00;;;;;;5089321;28;20548;-56
2022/10/30 12:54:28;;;;;;;17.70;14.40;;;22.60;1.00;;;;;;5089672;28;20472;-56
2022/10/30 12:57:21;;;;;;;17.23;15.40;;;22.50;1.00;;;;;;5087993;28;20472;-55